Aviation Digital Data Service (ADDS)

Output produced by METARs form (0059 UTC 22 September 2017)
found at http://www.aviationweather.gov/adds/metars/
 
MRLB 212300Z 2200/2224 16005KT 9999 FEW030 TX32/2219Z TN23/2211Z 
     TEMPO 2209/2213 00000KT 1500 BR SCT002 BKN010 
     BECMG 2217/2219 28007KT FEW025TCU 
     TEMPO 2220/2223 3000 TSRA SCT015CB
       
MROC 212300Z 2200/2224 07005KT 9999 FEW030 TX28/2217Z TN19/2211Z 
     TEMPO 2200/2203 VRB02KT BCFG BKN025 
     BECMG 2215/2218 25009KT 
     TEMPO 2220/2224 5000 SHRA FEW020TCU 
     PROB40 TSRA SCT015CB
       
MRLM 212300Z 2200/2224 06006KT 9999 FEW025 TX31/2219Z TN23/2211Z 
     BECMG 2203/2205 25005KT 
     BECMG 2215/2217 05007KT
       
MRPV 212300Z 2200/2224 30005KT 9999 FEW035 BKN100 TX27/2217Z TN18/2210Z 
     TEMPO 2202/2205 VRB02KT BKN015 
     BECMG 2206/2208 11003KT 
     BECMG 2214/2216 29005KT 
     TEMPO 2220/2223 5000 SHRA FEW020TCU